Prattsville, Arkansas
Current Conditions -  °F | °C
As of 5:56 AM on Friday 19 Dec 2014 (Local Time) from KADF Reporting Station
Haze Haze  
Wind Chill: 36°   Ceiling: 400
Heat Index: 42°   Visibility: 2.5mi
Dew Point: 42°   Wind: 9mph
Humidity: 100%   Direction: 20°NNE
Pressure: 30.22"   Gusts: NA
Location:  34.31°N, 92.55°W
Report Text: KADF 191156Z AUTO 02008KT 2 1/2SM BR OVC004 06/06 A3022 RMK AO2 55000 T00550055 10061 20050 SLP248
Loading
Personal Weather Stations






























Interactive Weather Map New forecast layout! Learn more

10-Day Weather Forecast

Advertisements
Track Severe Weather on mobile